createdAt,value
2019-05-03T00:00:19.416Z,75.97
2019-05-03T00:03:12.065Z,76.26
2019-05-03T00:05:53.409Z,76.10
2019-05-03T00:08:26.259Z,76.29
2019-05-03T00:10:56.397Z,76.53
2019-05-03T00:13:32.505Z,76.37
2019-05-03T00:16:39.122Z,76.63
2019-05-03T00:19:21.906Z,76.49
2019-05-03T00:21:56.436Z,77.01
2019-05-03T00:24:31.931Z,77.76
2019-05-03T00:27:07.743Z,77.58
2019-05-03T00:29:43.684Z,77.54
2019-05-03T00:32:17.262Z,78.57
2019-05-03T00:34:52.335Z,78.28
2019-05-03T00:37:32.642Z,78.57
2019-05-03T00:40:09.622Z,78.25
2019-05-03T00:42:42.276Z,78.83
2019-05-03T00:45:12.641Z,78.88
2019-05-03T00:47:42.842Z,78.09
2019-05-03T00:50:13.171Z,78.85
2019-05-03T00:52:46.552Z,78.99
2019-05-03T00:55:19.243Z,78.10
2019-05-03T00:57:55.473Z,78.71
2019-05-03T01:00:25.713Z,78.59
2019-05-03T01:02:57.210Z,79.38
2019-05-03T01:05:30.318Z,79.66
2019-05-03T01:08:02.907Z,79.52
2019-05-03T01:10:38.384Z,79.20
2019-05-03T01:13:10.036Z,78.43
2019-05-03T01:16:12.511Z,79.38
2019-05-03T01:18:49.332Z,79.23
2019-05-03T01:21:23.052Z,80.08
2019-05-03T01:23:53.316Z,79.61
2019-05-03T01:26:23.438Z,79.67
2019-05-03T01:28:58.234Z,79.45
2019-05-03T01:31:31.869Z,79.80
2019-05-03T01:34:02.733Z,79.68
2019-05-03T01:36:36.680Z,79.93
2019-05-03T01:39:12.635Z,80.39
2019-05-03T01:41:46.002Z,80.52
2019-05-03T01:44:21.878Z,80.10
2019-05-03T01:47:16.662Z,80.03
2019-05-03T01:49:56.095Z,79.72
2019-05-03T01:52:34.918Z,80.61
2019-05-03T01:55:05.219Z,80.27
2019-05-03T01:57:36.754Z,80.41
2019-05-03T02:00:11.725Z,79.97
2019-05-03T02:03:09.204Z,80.32
2019-05-03T02:05:49.098Z,79.99
2019-05-03T02:08:22.772Z,80.00
2019-05-03T02:10:52.942Z,80.47
2019-05-03T02:13:27.406Z,80.50
2019-05-03T02:15:57.659Z,80.44
2019-05-03T02:18:31.701Z,80.47
2019-05-03T02:21:09.098Z,80.18
2019-05-03T02:23:39.204Z,80.45
2019-05-03T02:26:11.654Z,80.81
2019-05-03T02:28:45.311Z,80.81
2019-05-03T02:31:19.038Z,80.46
2019-05-03T02:33:54.454Z,80.30
2019-05-03T02:36:24.557Z,80.54
2019-05-03T02:38:57.642Z,79.32
2019-05-03T02:41:27.767Z,79.24
2019-05-03T02:43:58.125Z,80.02
2019-05-03T02:46:59.009Z,80.10
2019-05-03T02:49:49.094Z,80.52
2019-05-03T02:52:38.004Z,79.90
2019-05-03T02:55:15.996Z,79.80
2019-05-03T02:57:56.034Z,79.50
2019-05-03T03:01:09.876Z,79.86
2019-05-03T03:03:41.153Z,79.47
2019-05-03T03:06:17.954Z,79.64
2019-05-03T03:08:50.319Z,79.25
2019-05-03T03:11:26.131Z,80.01
2019-05-03T03:13:59.457Z,80.22
2019-05-03T03:16:31.194Z,80.14
2019-05-03T03:19:06.847Z,80.30
2019-05-03T03:21:41.867Z,80.33
2019-05-03T03:24:17.528Z,80.93
2019-05-03T03:26:56.491Z,80.69
2019-05-03T03:29:41.352Z,80.65
2019-05-03T03:32:29.553Z,80.87
2019-05-03T03:35:20.152Z,81.54
2019-05-03T03:37:55.947Z,81.91
2019-05-03T03:40:29.150Z,81.73
2019-05-03T03:43:05.315Z,82.08
2019-05-03T03:45:41.177Z,82.02
2019-05-03T03:48:15.585Z,81.66
2019-05-03T03:50:48.016Z,81.62
2019-05-03T03:53:26.734Z,82.42
2019-05-03T03:55:59.507Z,82.15
2019-05-03T03:58:30.512Z,82.53
2019-05-03T04:01:06.198Z,82.05
2019-05-03T04:03:38.510Z,82.00
2019-05-03T04:06:15.361Z,81.34
2019-05-03T04:08:45.476Z,81.41
2019-05-03T04:11:18.542Z,81.65
2019-05-03T04:13:50.995Z,81.23
2019-05-03T04:16:36.540Z,80.80
2019-05-03T04:19:25.279Z,80.69
2019-05-03T04:21:58.269Z,80.50
2019-05-03T04:24:35.151Z,79.89
2019-05-03T04:27:18.520Z,80.04
2019-05-03T04:29:45.667Z,79.55
2019-05-03T04:32:19.123Z,79.70
2019-05-03T04:34:49.259Z,78.98
2019-05-03T04:37:22.197Z,78.50
2019-05-03T04:39:56.515Z,78.32
2019-05-03T04:42:29.928Z,78.57
2019-05-03T04:45:05.930Z,78.41
2019-05-03T04:47:38.456Z,78.56
2019-05-03T04:50:10.431Z,78.82
2019-05-03T04:52:40.932Z,78.38
2019-05-03T04:55:11.233Z,78.92
2019-05-03T04:57:49.227Z,78.44
2019-05-03T05:00:18.811Z,77.98
2019-05-03T05:02:55.187Z,77.37
2019-05-03T05:05:45.260Z,77.09
2019-05-03T05:08:22.164Z,77.23
2019-05-03T05:10:52.810Z,76.61
2019-05-03T05:13:28.216Z,75.75
2019-05-03T05:16:00.873Z,74.65
2019-05-03T05:18:38.913Z,74.96
2019-05-03T05:21:30.229Z,74.35
2019-05-03T05:24:01.969Z,73.18
2019-05-03T05:26:51.099Z,72.34
2019-05-03T05:29:25.359Z,71.21
2019-05-03T05:31:58.769Z,63.39
2019-05-03T05:34:29.114Z,59.86
2019-05-03T05:36:59.251Z,55.77
2019-05-03T05:39:29.419Z,62.05
2019-05-03T05:41:59.648Z,62.68
2019-05-03T05:44:29.753Z,54.85
2019-05-03T05:47:19.720Z,52.59
2019-05-03T05:49:56.691Z,51.29
2019-05-03T05:52:27.287Z,50.98
2019-05-03T05:55:15.809Z,48.26
2019-05-03T05:58:18.095Z,47.52
2019-05-03T06:01:11.935Z,47.85
2019-05-03T06:03:59.157Z,47.96
2019-05-03T06:07:18.175Z,47.68
2019-05-03T06:10:14.059Z,47.15
2019-05-03T06:13:15.225Z,46.81
2019-05-03T06:16:16.514Z,53.37
2019-05-03T06:25:35.425Z,45.79
2019-05-03T06:28:18.325Z,45.55
2019-05-03T06:31:04.813Z,45.88
2019-05-03T06:33:35.012Z,46.14
2019-05-03T06:36:05.297Z,46.29
2019-05-03T06:38:35.459Z,45.53
2019-05-03T06:41:05.795Z,45.73
2019-05-03T06:43:39.649Z,45.02
2019-05-03T06:46:07.848Z,45.11
2019-05-03T06:48:38.027Z,43.83
2019-05-03T06:51:10.526Z,46.17
2019-05-03T06:53:41.745Z,45.90
2019-05-03T06:56:14.827Z,45.78
2019-05-03T06:58:45.061Z,45.67
2019-05-03T07:01:25.319Z,46.39
2019-05-03T07:04:05.008Z,45.35
2019-05-03T07:06:52.426Z,46.05
2019-05-03T07:09:35.382Z,45.27
2019-05-03T07:12:05.852Z,44.41
2019-05-03T07:14:36.018Z,46.19
2019-05-03T07:17:06.200Z,45.10
2019-05-03T07:19:36.399Z,45.18
2019-05-03T07:22:06.483Z,45.48
2019-05-03T07:24:40.599Z,44.60
2019-05-03T07:27:48.041Z,45.08
2019-05-03T07:30:18.382Z,47.00
2019-05-03T07:32:55.370Z,46.95
2019-05-03T07:35:35.227Z,48.26
2019-05-03T07:38:05.489Z,47.69
2019-05-03T07:40:35.699Z,48.49
2019-05-03T07:43:05.878Z,48.99
2019-05-03T07:45:35.986Z,49.91
2019-05-03T07:48:06.120Z,47.67
2019-05-03T07:50:36.340Z,45.20
2019-05-03T07:53:06.462Z,44.47
2019-05-03T07:55:57.238Z,44.21
2019-05-03T07:58:27.358Z,43.69
2019-05-03T08:01:06.311Z,43.15
2019-05-03T08:03:30.746Z,40.40
2019-05-03T08:06:32.120Z,40.79
2019-05-03T08:09:04.766Z,40.45
2019-05-03T08:11:35.192Z,39.67
2019-05-03T08:14:06.015Z,39.88
2019-05-03T08:16:36.238Z,39.33
2019-05-03T08:19:06.983Z,41.93
2019-05-03T08:21:38.663Z,40.86
2019-05-03T08:24:09.130Z,40.62
2019-05-03T08:26:39.245Z,41.36
2019-05-03T08:29:16.229Z,43.51
2019-05-03T08:32:09.278Z,42.55
2019-05-03T08:35:04.801Z,41.88
2019-05-03T08:37:47.862Z,41.35
2019-05-03T08:40:18.520Z,41.70
2019-05-03T08:42:55.764Z,43.05
2019-05-03T08:45:30.099Z,45.56
2019-05-03T08:48:00.351Z,47.36
2019-05-03T08:50:30.472Z,52.01
2019-05-03T08:53:00.564Z,57.85
2019-05-03T08:55:31.361Z,60.90
2019-05-03T08:58:05.324Z,63.68
2019-05-03T09:00:38.325Z,60.48
2019-05-03T09:03:15.836Z,56.73
2019-05-03T09:05:57.791Z,56.07
2019-05-03T09:08:29.531Z,53.38
2019-05-03T09:11:30.318Z,51.34
2019-05-03T09:13:55.750Z,49.18
2019-05-03T09:16:29.765Z,47.89
2019-05-03T09:19:05.988Z,46.46
2019-05-03T09:21:36.177Z,49.40
2019-05-03T09:24:06.600Z,55.67
2019-05-03T09:26:36.711Z,53.60
2019-05-03T09:29:09.888Z,51.63
2019-05-03T09:31:44.662Z,50.99
2019-05-03T09:34:14.933Z,49.78
2019-05-03T09:36:51.069Z,48.64
2019-05-03T09:39:24.516Z,47.05
2019-05-03T09:41:57.980Z,47.17
2019-05-03T09:44:28.515Z,45.54
2019-05-03T09:47:05.799Z,45.39
2019-05-03T09:49:47.543Z,45.34
2019-05-03T09:52:27.714Z,44.12
2019-05-03T09:55:27.010Z,41.53
2019-05-03T09:57:57.622Z,41.76
2019-05-03T10:00:41.894Z,39.53
2019-05-03T10:03:16.001Z,40.66
2019-05-03T10:06:03.688Z,42.27
2019-05-03T10:08:38.868Z,42.69
2019-05-03T10:11:30.274Z,43.92
2019-05-03T10:14:07.205Z,43.08
2019-05-03T10:16:45.429Z,43.79
2019-05-03T10:19:16.262Z,44.98
2019-05-03T10:21:48.416Z,45.84
2019-05-03T10:24:18.535Z,46.60
2019-05-03T10:26:48.639Z,49.38
2019-05-03T10:29:18.763Z,56.50
2019-05-03T10:32:20.004Z,57.91
2019-05-03T10:35:05.501Z,56.19
2019-05-03T10:37:42.633Z,53.34
2019-05-03T10:40:13.174Z,51.13
2019-05-03T10:42:44.515Z,49.95
2019-05-03T10:45:18.418Z,49.37
2019-05-03T10:47:53.636Z,46.74
2019-05-03T10:50:34.833Z,47.08
2019-05-03T10:53:36.799Z,46.38
2019-05-03T10:56:23.180Z,47.07
2019-05-03T10:59:09.399Z,49.47
2019-05-03T11:01:57.292Z,52.35
2019-05-03T11:04:43.723Z,54.47
2019-05-03T11:07:20.993Z,54.84
2019-05-03T11:09:55.320Z,50.86
2019-05-03T11:12:35.198Z,48.75
2019-05-03T11:15:05.783Z,48.91
2019-05-03T11:17:58.047Z,47.67
2019-05-03T11:20:36.023Z,46.55
2019-05-03T11:23:35.905Z,44.23
2019-05-03T11:26:06.131Z,44.33
2019-05-03T11:28:41.885Z,44.08
2019-05-03T11:31:29.487Z,46.66
2019-05-03T11:34:01.354Z,49.13
2019-05-03T11:36:45.488Z,46.86
2019-05-03T11:39:20.565Z,44.95
2019-05-03T11:42:09.727Z,41.91
2019-05-03T11:44:39.854Z,37.70
2019-05-03T11:47:10.051Z,38.02
2019-05-03T11:49:40.129Z,38.06
2019-05-03T11:52:10.371Z,38.15
2019-05-03T11:54:40.478Z,38.75
2019-05-03T11:57:17.445Z,38.59
2019-05-03T11:59:47.709Z,37.79
2019-05-03T12:02:36.761Z,36.94
2019-05-03T12:05:10.356Z,39.05
2019-05-03T12:07:40.511Z,40.21
2019-05-03T12:10:17.104Z,40.97
2019-05-03T12:12:44.726Z,36.99
2019-05-03T12:15:15.272Z,37.93
2019-05-03T12:17:54.142Z,38.74
2019-05-03T12:20:20.733Z,40.72
2019-05-03T12:22:51.564Z,41.33
2019-05-03T12:25:22.795Z,40.58
2019-05-03T12:27:53.885Z,40.38
2019-05-03T12:30:27.489Z,40.16
2019-05-03T12:32:55.856Z,42.17
2019-05-03T12:35:25.981Z,44.00
2019-05-03T12:37:56.086Z,45.52
2019-05-03T12:40:26.159Z,45.64
2019-05-03T12:42:56.343Z,45.38
2019-05-03T12:45:26.485Z,44.89
2019-05-03T12:47:56.606Z,44.54
2019-05-03T12:50:26.717Z,45.01
2019-05-03T12:52:56.805Z,46.35
2019-05-03T12:55:26.906Z,45.14
2019-05-03T12:57:57.108Z,45.14
2019-05-03T13:00:58.765Z,45.92
2019-05-03T13:03:34.730Z,43.02
2019-05-03T13:06:07.318Z,41.61
2019-05-03T13:08:42.650Z,41.43
2019-05-03T13:11:13.068Z,43.31
2019-05-03T13:13:45.057Z,44.77
2019-05-03T13:16:18.549Z,46.42
2019-05-03T13:18:48.652Z,48.04
2019-05-03T13:21:18.773Z,48.93
2019-05-03T13:23:48.880Z,47.39
2019-05-03T13:26:19.037Z,45.47
2019-05-03T13:28:49.259Z,45.46
2019-05-03T13:31:19.470Z,42.37
2019-05-03T13:33:49.567Z,38.53
2019-05-03T13:36:19.753Z,37.71
2019-05-03T13:38:55.844Z,36.74
2019-05-03T13:41:25.059Z,36.46
2019-05-03T13:43:55.311Z,38.41
2019-05-03T13:46:25.386Z,41.17
2019-05-03T13:48:55.586Z,45.97
2019-05-03T13:51:26.704Z,48.79
2019-05-03T13:53:56.865Z,48.02
2019-05-03T13:56:26.949Z,48.20
2019-05-03T13:58:57.437Z,48.36
2019-05-03T14:01:27.515Z,48.10
2019-05-03T14:03:57.661Z,48.58
2019-05-03T14:06:27.919Z,46.46
2019-05-03T14:08:58.095Z,47.03
2019-05-03T14:11:28.207Z,44.98
2019-05-03T14:13:58.281Z,44.40
2019-05-03T14:16:28.901Z,42.98
2019-05-03T14:19:05.297Z,43.07
2019-05-03T14:21:42.986Z,41.45
2019-05-03T14:24:15.624Z,39.58
2019-05-03T14:26:52.620Z,37.48
2019-05-03T14:29:22.771Z,35.50
2019-05-03T14:31:54.550Z,37.39
2019-05-03T14:34:25.728Z,40.27
2019-05-03T14:36:56.059Z,41.79
2019-05-03T14:39:26.189Z,40.10
2019-05-03T14:41:56.279Z,35.61
2019-05-03T14:44:26.381Z,34.89
2019-05-03T14:46:59.149Z,34.78
2019-05-03T14:49:31.392Z,35.76
2019-05-03T14:52:01.500Z,35.96
2019-05-03T14:54:34.475Z,35.49
2019-05-03T14:57:19.251Z,33.95
2019-05-03T15:00:17.246Z,37.80
2019-05-03T15:02:51.295Z,39.31
2019-05-03T15:05:21.408Z,40.05
2019-05-03T15:07:51.510Z,39.94
2019-05-03T15:10:21.688Z,40.48
2019-05-03T15:12:51.776Z,43.12
2019-05-03T15:15:22.061Z,44.41
2019-05-03T15:17:52.169Z,44.86
2019-05-03T15:20:22.250Z,44.60
2019-05-03T15:22:52.378Z,45.06
2019-05-03T15:25:22.461Z,45.08
2019-05-03T15:27:52.534Z,45.30
2019-05-03T15:30:22.914Z,45.64
2019-05-03T15:32:57.718Z,45.67
2019-05-03T15:35:25.881Z,44.53
2019-05-03T15:37:56.476Z,39.68
2019-05-03T15:40:26.585Z,38.02
2019-05-03T15:43:02.608Z,37.54
2019-05-03T15:45:54.532Z,35.39
2019-05-03T15:48:27.242Z,33.23
2019-05-03T15:50:57.374Z,32.64
2019-05-03T15:53:27.784Z,33.12
2019-05-03T15:55:58.592Z,36.82
2019-05-03T15:58:28.658Z,39.09
2019-05-03T16:00:58.752Z,40.61
2019-05-03T16:03:32.638Z,42.22
2019-05-03T16:06:04.792Z,43.13
2019-05-03T16:08:34.725Z,44.29
2019-05-03T16:11:05.353Z,45.57
2019-05-03T16:13:38.210Z,45.63
2019-05-03T16:16:07.544Z,45.87
2019-05-03T16:18:38.050Z,45.91
2019-05-03T16:21:08.280Z,47.68
2019-05-03T16:23:39.102Z,47.60
2019-05-03T16:26:09.596Z,47.18
2019-05-03T16:29:04.805Z,48.02
2019-05-03T16:31:34.903Z,48.18
2019-05-03T16:34:05.009Z,48.87
2019-05-03T16:36:36.865Z,48.24
2019-05-03T16:39:08.277Z,48.70
2019-05-03T16:41:38.398Z,48.89
2019-05-03T16:44:10.615Z,49.38
2019-05-03T16:46:40.748Z,48.96
2019-05-03T16:49:10.863Z,50.41
2019-05-03T16:51:40.938Z,48.91
2019-05-03T16:54:11.186Z,49.25
2019-05-03T16:56:41.315Z,49.66
2019-05-03T16:59:11.440Z,50.20
2019-05-03T17:01:41.583Z,51.03
2019-05-03T17:04:27.955Z,51.25
2019-05-03T17:07:24.656Z,51.48
2019-05-03T17:09:58.467Z,49.55
2019-05-03T17:12:29.915Z,49.93
2019-05-03T17:15:00.190Z,51.48
2019-05-03T17:17:30.260Z,54.59
2019-05-03T17:20:00.368Z,59.50
2019-05-03T17:22:30.485Z,63.08
2019-05-03T17:25:00.602Z,65.40
2019-05-03T17:27:30.714Z,69.53
2019-05-03T17:30:00.904Z,71.92
2019-05-03T17:32:31.007Z,71.89
2019-05-03T17:35:01.142Z,71.98
2019-05-03T17:37:31.271Z,71.57
2019-05-03T17:40:38.745Z,72.12
2019-05-03T17:43:14.700Z,72.66
2019-05-03T17:45:48.031Z,71.50
2019-05-03T17:48:18.107Z,70.81
2019-05-03T17:50:48.197Z,71.27
2019-05-03T17:53:54.622Z,70.21
2019-05-03T17:56:29.595Z,70.70
2019-05-03T17:59:04.576Z,70.33
2019-05-03T18:01:55.418Z,69.51
2019-05-03T18:04:44.592Z,69.50
2019-05-03T18:07:30.852Z,68.99
2019-05-03T18:10:01.162Z,67.68
2019-05-03T18:12:31.280Z,66.43
2019-05-03T18:15:01.340Z,66.56
2019-05-03T18:17:31.531Z,65.98
2019-05-03T18:20:01.633Z,66.54
2019-05-03T18:22:31.854Z,65.96
2019-05-03T18:25:01.957Z,66.30
2019-05-03T18:27:32.107Z,66.82
2019-05-03T18:30:02.212Z,66.85
2019-05-03T18:32:34.352Z,67.07
2019-05-03T18:35:04.907Z,67.02
2019-05-03T18:37:35.142Z,67.39
2019-05-03T18:40:05.878Z,69.42
2019-05-03T18:42:41.788Z,73.27
2019-05-03T18:45:23.794Z,78.23
2019-05-03T18:47:54.449Z,79.50
2019-05-03T18:50:24.754Z,80.93
2019-05-03T18:52:55.390Z,82.01
2019-05-03T18:55:25.624Z,82.75
2019-05-03T18:57:57.548Z,81.69
2019-05-03T19:00:28.596Z,82.77
2019-05-03T19:02:58.852Z,82.57
2019-05-03T19:05:31.062Z,83.66
2019-05-03T19:08:27.384Z,83.60
2019-05-03T19:11:04.447Z,83.33
2019-05-03T19:13:41.582Z,84.71
2019-05-03T19:16:39.999Z,85.08
2019-05-03T19:19:10.736Z,84.70
2019-05-03T19:21:41.009Z,83.95
2019-05-03T19:24:11.357Z,84.54
2019-05-03T19:26:45.035Z,84.19
2019-05-03T19:29:17.748Z,83.57
2019-05-03T19:31:48.120Z,83.88
2019-05-03T19:34:18.377Z,84.61
2019-05-03T19:36:48.744Z,84.54
2019-05-03T19:39:19.031Z,84.83
2019-05-03T19:41:49.377Z,84.95
2019-05-03T19:44:19.677Z,85.19
2019-05-03T19:46:49.846Z,85.94
2019-05-03T19:49:20.105Z,85.85
2019-05-03T19:51:54.531Z,85.35
2019-05-03T19:54:24.802Z,85.45
2019-05-03T19:56:55.672Z,85.36
2019-05-03T19:59:44.337Z,85.19
2019-05-03T20:02:24.361Z,85.36
2019-05-03T20:05:15.016Z,84.48
2019-05-03T20:08:05.192Z,85.45
2019-05-03T20:10:35.408Z,85.25
2019-05-03T20:13:05.675Z,85.66
2019-05-03T20:15:35.844Z,86.12
2019-05-03T20:18:06.156Z,87.30
2019-05-03T20:20:36.435Z,86.57
2019-05-03T20:23:06.810Z,86.04
2019-05-03T20:25:37.024Z,86.31
2019-05-03T20:28:07.238Z,86.00
2019-05-03T20:30:37.505Z,86.90
2019-05-03T20:33:07.843Z,86.18
2019-05-03T20:35:38.905Z,85.99
2019-05-03T20:38:09.043Z,85.99
2019-05-03T20:40:39.201Z,86.83
2019-05-03T20:43:27.178Z,86.99
2019-05-03T20:46:05.084Z,86.76
2019-05-03T20:48:36.013Z,86.97
2019-05-03T20:51:06.130Z,87.74
2019-05-03T20:53:36.251Z,87.43
2019-05-03T20:56:06.333Z,87.50
2019-05-03T20:58:36.475Z,87.91
2019-05-03T21:01:06.607Z,87.59
2019-05-03T21:03:36.730Z,88.02
2019-05-03T21:06:06.893Z,87.80
2019-05-03T21:08:49.597Z,88.11
2019-05-03T21:11:08.839Z,87.96
2019-05-03T21:13:42.309Z,87.14
2019-05-03T21:16:29.794Z,87.62
2019-05-03T21:19:15.866Z,88.19
2019-05-03T21:21:48.704Z,87.06
2019-05-03T21:24:28.065Z,87.40
2019-05-03T21:26:58.188Z,86.85
2019-05-03T21:29:28.308Z,87.31
2019-05-03T21:31:58.408Z,87.49
2019-05-03T21:34:28.485Z,87.87
2019-05-03T21:36:58.615Z,88.11
2019-05-03T21:39:28.700Z,88.35
2019-05-03T21:41:58.781Z,88.38
2019-05-03T21:44:32.729Z,88.29
2019-05-03T21:47:27.650Z,88.56
2019-05-03T21:49:58.698Z,87.04
2019-05-03T21:52:28.915Z,87.18
2019-05-03T21:54:58.996Z,87.36
2019-05-03T21:57:29.121Z,87.83
2019-05-03T21:59:59.201Z,88.31
2019-05-03T22:02:29.272Z,88.18
2019-05-03T22:04:59.393Z,87.96
2019-05-03T22:07:29.467Z,87.95
2019-05-03T22:09:59.910Z,87.97
2019-05-03T22:12:29.955Z,88.00
2019-05-03T22:15:16.350Z,88.27
2019-05-03T22:18:02.368Z,88.52
2019-05-03T22:20:41.130Z,88.53
2019-05-03T22:23:38.057Z,88.49
2019-05-03T22:26:08.329Z,88.57
2019-05-03T22:28:38.423Z,88.48
2019-05-03T22:31:08.616Z,88.87
2019-05-03T22:33:38.717Z,89.13
2019-05-03T22:36:10.897Z,88.97
2019-05-03T22:38:44.893Z,89.01
2019-05-03T22:41:15.118Z,89.03
2019-05-03T22:43:45.662Z,89.10
2019-05-03T22:46:15.840Z,89.24
2019-05-03T22:48:46.634Z,89.54
2019-05-03T22:51:16.878Z,89.52
2019-05-03T22:53:51.423Z,89.22
2019-05-03T22:56:24.751Z,89.10
2019-05-03T22:58:54.890Z,88.94
2019-05-03T23:01:25.563Z,89.08
2019-05-03T23:03:55.851Z,88.92
2019-05-03T23:06:26.172Z,89.35
2019-05-03T23:08:56.293Z,89.47
2019-05-03T23:11:26.366Z,88.90
2019-05-03T23:14:04.599Z,88.75
2019-05-03T23:16:35.710Z,88.36
2019-05-03T23:19:25.011Z,88.17
2019-05-03T23:22:20.894Z,88.59
2019-05-03T23:24:51.008Z,88.86
2019-05-03T23:27:21.182Z,88.95
2019-05-03T23:29:51.299Z,88.89
2019-05-03T23:32:26.886Z,89.08
2019-05-03T23:34:56.962Z,89.23
2019-05-03T23:37:27.110Z,88.06
2019-05-03T23:39:57.151Z,86.73
2019-05-03T23:42:27.246Z,85.46
2019-05-03T23:44:57.310Z,84.57
2019-05-03T23:47:45.044Z,85.47
2019-05-03T23:50:20.152Z,85.73
2019-05-03T23:52:50.248Z,85.71
2019-05-03T23:55:31.654Z,86.15
2019-05-03T23:58:01.746Z,86.82
